Time;durP1;ratioP1;P1;durP2;ratioP2;P2;SDS_P1;SDS_P2;PMS_P1;PMS_P2;Temp;Humidity;BMP_temperature;BMP_pressure;BME280_temperature;BME280_humidity;BME280_pressure;Samples;Min_cycle;Max_cycle;Signal;HPM_P1;HPM_P2
2021/01/18 08:30:41;;;;;;;26.70;18.33;;;;;;;-1.64;58.25;94997.38;5064542;28;20461;-76
2021/01/18 08:33:07;;;;;;;28.70;18.35;;;;;;;-2.58;61.67;95006.66;5047049;28;20527;-76
2021/01/18 08:35:33;;;;;;;28.17;18.88;;;;;;;-1.74;58.87;95010.78;5063071;28;20029;-76
2021/01/18 08:38:06;;;;;;;31.55;20.08;;;;;;;-1.13;58.12;94995.00;5063252;28;20032;-76
2021/01/18 08:40:36;;;;;;;28.88;18.90;;;;;;;-0.38;55.45;95009.41;5025977;28;20029;-76
2021/01/18 08:43:02;;;;;;;24.02;16.65;;;;;;;-0.57;55.46;95011.56;5055709;28;20075;-76
2021/01/18 08:45:37;;;;;;;22.67;17.40;;;;;;;-1.12;57.60;95006.75;5028784;28;20021;-76
2021/01/18 08:48:07;;;;;;;21.23;14.50;;;;;;;-1.48;57.81;94988.81;5061164;28;20044;-76
2021/01/18 08:50:55;;;;;;;18.85;13.20;;;;;;;-1.61;57.34;94993.88;5029803;28;20547;-76
2021/01/18 08:53:29;;;;;;;20.02;14.05;;;;;;;-1.40;58.42;94997.56;5025091;28;20017;-76
2021/01/18 08:55:59;;;;;;;17.73;13.00;;;;;;;-1.52;58.65;95015.31;5041580;28;20107;-76
2021/01/18 08:58:38;;;;;;;16.98;12.43;;;;;;;-1.93;59.30;94985.75;5044807;28;20060;-76
2021/01/18 09:01:08;;;;;;;22.58;12.68;;;;;;;-1.99;58.08;95015.75;5059134;28;20037;-76
2021/01/18 09:03:34;;;;;;;16.02;11.93;;;;;;;-2.04;58.27;95017.72;5045898;28;20033;-77
2021/01/18 09:06:00;;;;;;;13.38;9.75;;;;;;;-2.49;57.28;94990.91;5048793;28;20410;-76
2021/01/18 09:08:27;;;;;;;12.00;10.60;;;;;;;-2.30;57.40;95009.16;5062198;28;20693;-74
2021/01/18 09:10:53;;;;;;;15.68;11.20;;;;;;;-2.68;58.44;94997.06;5062714;28;20028;-73
2021/01/18 09:13:25;;;;;;;14.35;10.05;;;;;;;-2.48;58.32;95010.28;5063350;28;20028;-74
2021/01/18 09:15:54;;;;;;;16.05;11.13;;;;;;;-2.15;58.82;95016.66;5045302;28;20032;-74
2021/01/18 09:18:19;;;;;;;16.25;10.00;;;;;;;-2.48;56.96;95012.81;5044417;28;20486;-73
2021/01/18 09:20:45;;;;;;;10.20;8.38;;;;;;;-2.41;57.16;95003.94;5042421;28;20028;-74
2021/01/18 09:23:11;;;;;;;12.98;8.32;;;;;;;-2.28;56.97;95008.16;5042924;28;20036;-73
2021/01/18 09:25:38;;;;;;;10.82;8.50;;;;;;;-2.46;56.38;94990.72;5052648;28;20033;-73
2021/01/18 09:28:14;;;;;;;9.45;8.30;;;;;;;-2.40;57.00;94995.41;5058043;28;20115;-74
2021/01/18 09:30:41;;;;;;;10.80;8.40;;;;;;;-2.47;56.81;94984.81;5049986;28;20186;-73
2021/01/18 09:33:08;;;;;;;13.48;8.93;;;;;;;-2.43;57.12;94993.06;5060631;28;20413;-72
2021/01/18 09:35:36;;;;;;;10.77;7.80;;;;;;;-2.33;56.47;94956.94;5062053;28;20036;-74
2021/01/18 09:38:02;;;;;;;8.73;7.55;;;;;;;-2.05;55.88;94978.03;5051355;28;20036;-74
2021/01/18 09:40:28;;;;;;;11.43;7.95;;;;;;;-2.32;54.88;94980.56;5040546;28;20029;-74
2021/01/18 09:42:55;;;;;;;9.68;8.25;;;;;;;-2.35;55.68;94978.22;5011759;28;20098;-73
2021/01/18 09:45:20;;;;;;;11.25;8.95;;;;;;;-2.04;55.66;94982.22;5043973;28;20025;-74
2021/01/18 09:47:47;;;;;;;11.43;8.50;;;;;;;-1.95;55.45;94961.34;5032042;28;20410;-76
2021/01/18 09:50:15;;;;;;;12.20;8.35;;;;;;;-1.57;54.63;94969.09;5022826;28;20034;-76
2021/01/18 09:52:42;;;;;;;11.00;7.70;;;;;;;-1.76;53.94;94975.34;5038381;28;20471;-76
2021/01/18 09:55:14;;;;;;;8.63;7.63;;;;;;;-1.32;53.09;94946.31;5031592;28;20026;-76
2021/01/18 09:57:42;;;;;;;9.00;7.90;;;;;;;-1.35;52.50;94951.59;5021821;28;20055;-76
2021/01/18 10:00:08;;;;;;;10.18;8.50;;;;;;;-0.57;51.62;94948.00;5041753;28;20029;-76
2021/01/18 10:02:42;;;;;;;14.90;7.90;;;;;;;-0.37;54.14;94947.47;4994291;28;20037;-76
2021/01/18 10:05:08;;;;;;;8.65;7.82;;;;;;;0.19;49.78;94928.25;4992028;27;20047;-76
2021/01/18 10:07:33;;;;;;;11.85;8.70;;;;;;;0.12;49.48;94942.34;4991388;28;20033;-76
2021/01/18 10:10:00;;;;;;;8.35;7.55;;;;;;;0.61;48.71;94944.69;5009362;28;20037;-76
2021/01/18 10:12:25;;;;;;;9.32;7.78;;;;;;;0.81;48.68;94923.69;4991512;28;20044;-76
2021/01/18 10:14:51;;;;;;;9.15;8.25;;;;;;;0.06;48.49;94913.94;4992169;28;20491;-76
2021/01/18 10:17:17;;;;;;;10.15;8.27;;;;;;;0.00;50.01;94926.16;4991670;28;20053;-77
2021/01/18 10:19:42;;;;;;;8.82;7.93;;;;;;;0.12;49.01;94924.50;4999760;28;20405;-76
2021/01/18 10:22:15;;;;;;;8.07;7.25;;;;;;;0.25;48.74;94935.44;5017757;28;20072;-76
2021/01/18 10:24:41;;;;;;;11.10;8.25;;;;;;;0.50;49.65;94937.84;4999731;28;20061;-76
2021/01/18 10:27:10;;;;;;;15.07;8.65;;;;;;;0.73;47.44;94928.53;4997387;28;20044;-76
2021/01/18 10:29:38;;;;;;;9.60;7.80;;;;;;;1.46;47.56;94923.88;5002702;28;20068;-76
2021/01/18 10:32:03;;;;;;;11.60;8.70;;;;;;;1.19;46.32;94928.47;4993043;28;20069;-77
2021/01/18 10:34:30;;;;;;;9.38;7.88;;;;;;;0.42;47.33;94907.03;4973405;28;20042;-76
2021/01/18 10:36:56;;;;;;;8.50;7.38;;;;;;;0.72;47.62;94931.19;4982618;28;20022;-76
2021/01/18 10:39:38;;;;;;;8.57;7.43;;;;;;;0.56;47.28;94911.13;4998290;28;20046;-77
2021/01/18 10:42:11;;;;;;;13.40;9.60;;;;;;;0.33;47.42;94920.41;5003926;28;20514;-76
2021/01/18 10:44:39;;;;;;;13.93;8.10;;;;;;;0.49;47.95;94920.13;5013356;28;20029;-76
2021/01/18 10:47:05;;;;;;;8.70;7.47;;;;;;;-0.33;49.83;94927.72;4993015;28;20063;-76
2021/01/18 10:49:31;;;;;;;10.88;8.30;;;;;;;-0.47;50.02;94904.97;4989048;28;20037;-76
2021/01/18 10:52:11;;;;;;;10.23;7.72;;;;;;;-0.03;49.87;94910.31;4982251;28;20029;-76
2021/01/18 10:54:36;;;;;;;10.82;7.72;;;;;;;-0.60;50.57;94915.97;4990193;28;20033;-76
2021/01/18 10:57:02;;;;;;;9.30;7.45;;;;;;;-0.59;49.86;94907.44;5010051;28;20512;-77
2021/01/18 10:59:28;;;;;;;9.27;7.82;;;;;;;-0.67;50.59;94875.81;5006967;28;20416;-76
2021/01/18 11:02:06;;;;;;;11.25;7.82;;;;;;;-0.22;50.28;94912.50;5007001;28;20102;-76
2021/01/18 11:04:42;;;;;;;9.90;7.35;;;;;;;-0.26;50.24;94908.59;5015906;28;20022;-75
2021/01/18 11:07:09;;;;;;;7.75;6.82;;;;;;;-0.43;50.00;94908.94;5009929;28;20033;-76
2021/01/18 11:09:34;;;;;;;13.07;8.65;;;;;;;-0.57;50.23;94915.78;4993849;28;20124;-76
2021/01/18 11:12:00;;;;;;;8.38;7.43;;;;;;;-0.87;51.18;94920.41;5025239;28;20033;-76
2021/01/18 11:14:27;;;;;;;9.70;7.45;;;;;;;-0.58;51.57;94920.97;5039688;28;20022;-76
2021/01/18 11:16:59;;;;;;;9.65;7.70;;;;;;;-0.28;50.48;94913.75;5017114;28;20028;-76
2021/01/18 11:19:24;;;;;;;8.18;7.07;;;;;;;-0.31;49.96;94913.16;5014794;28;20033;-77
2021/01/18 11:21:50;;;;;;;8.13;7.13;;;;;;;-0.46;50.01;94906.59;4999447;28;20399;-76
2021/01/18 11:24:15;;;;;;;8.63;7.20;;;;;;;-0.65;50.08;94900.25;5001705;28;20032;-76
2021/01/18 11:26:41;;;;;;;8.95;7.22;;;;;;;-0.47;50.80;94910.06;5009714;28;20087;-76
2021/01/18 11:29:06;;;;;;;8.00;6.78;;;;;;;-0.66;50.60;94908.78;5027851;28;20512;-76
2021/01/18 11:31:32;;;;;;;8.02;7.28;;;;;;;-0.74;50.97;94900.06;5004139;28;20504;-76
2021/01/18 11:33:57;;;;;;;9.13;8.23;;;;;;;-0.36;49.87;94907.59;4991550;28;20029;-76
2021/01/18 11:36:24;;;;;;;10.70;7.07;;;;;;;-0.67;50.30;94903.78;5008842;28;20091;-75
2021/01/18 11:38:49;;;;;;;11.13;8.20;;;;;;;-0.51;50.61;94904.34;5024737;28;20486;-77
2021/01/18 11:41:15;;;;;;;9.10;8.13;;;;;;;-0.47;51.27;94903.25;5004583;28;20032;-75
2021/01/18 11:43:40;;;;;;;9.07;8.15;;;;;;;-0.67;50.94;94908.88;4986101;28;20114;-76
2021/01/18 11:46:05;;;;;;;9.52;8.05;;;;;;;-0.87;50.49;94895.00;4987793;28;20037;-76
2021/01/18 11:48:31;;;;;;;11.73;8.77;;;;;;;-0.61;50.96;94908.47;5009218;28;20029;-75
2021/01/18 11:50:56;;;;;;;12.00;8.23;;;;;;;-0.82;51.85;94909.91;5023569;28;20044;-76
2021/01/18 11:53:22;;;;;;;10.30;8.00;;;;;;;-1.03;52.17;94891.88;5024936;28;20076;-75
2021/01/18 11:55:48;;;;;;;12.73;8.38;;;;;;;-0.64;51.24;94906.94;4979179;28;20498;-76
2021/01/18 11:58:14;;;;;;;10.60;8.35;;;;;;;-1.03;52.21;94911.38;5025460;28;20562;-77
2021/01/18 12:00:39;;;;;;;13.25;9.05;;;;;;;-1.25;52.05;94919.56;5004440;28;20037;-76
2021/01/18 12:03:04;;;;;;;10.80;8.52;;;;;;;-1.28;51.48;94909.63;5024115;28;20029;-75
2021/01/18 12:05:30;;;;;;;9.35;7.90;;;;;;;-1.06;51.46;94917.47;4984845;28;20034;-76
2021/01/18 12:08:02;;;;;;;10.18;8.40;;;;;;;-1.23;51.74;94884.75;5014867;28;20029;-75
2021/01/18 12:10:27;;;;;;;11.80;9.15;;;;;;;-0.90;52.59;94912.19;5008615;28;20033;-76
2021/01/18 12:12:53;;;;;;;11.43;8.52;;;;;;;-1.02;51.63;94902.81;5006546;28;20541;-76
2021/01/18 12:15:18;;;;;;;11.35;9.13;;;;;;;-1.11;52.36;94874.59;5021416;28;20025;-76
2021/01/18 12:17:44;;;;;;;13.27;8.88;;;;;;;-0.94;51.04;94885.34;5000056;28;20037;-76
2021/01/18 12:20:11;;;;;;;12.20;9.73;;;;;;;-0.99;51.37;94883.09;5000527;28;20029;-76
2021/01/18 12:22:36;;;;;;;11.88;9.68;;;;;;;-0.98;52.44;94905.06;4987989;28;20080;-76
2021/01/18 12:25:04;;;;;;;11.48;10.13;;;;;;;-0.96;52.48;94900.69;4986584;28;20021;-76
2021/01/18 12:27:29;;;;;;;15.48;9.82;;;;;;;-0.88;52.39;94907.78;5025018;28;20695;-76
2021/01/18 12:29:55;;;;;;;12.70;8.73;;;;;;;-1.14;51.97;94887.50;5024896;28;20073;-76
2021/01/18 12:32:20;;;;;;;11.10;9.40;;;;;;;-0.86;51.94;94906.75;5025347;28;20383;-76
2021/01/18 12:34:46;;;;;;;12.07;9.10;;;;;;;-1.10;52.29;94905.88;5023793;28;20080;-76
2021/01/18 12:37:12;;;;;;;10.23;9.18;;;;;;;-0.94;52.29;94914.09;5024810;28;20064;-76
2021/01/18 12:39:37;;;;;;;8.98;8.10;;;;;;;-1.22;51.70;94899.09;5024812;28;20495;-78
2021/01/18 12:42:04;;;;;;;11.82;9.63;;;;;;;-1.35;52.29;94909.22;5024252;28;20033;-76
2021/01/18 12:44:29;;;;;;;13.63;9.13;;;;;;;-1.50;52.46;94886.56;4993277;28;20034;-76
2021/01/18 12:47:01;;;;;;;12.38;9.50;;;;;;;-1.31;52.35;94918.25;5022811;28;20071;-76
2021/01/18 12:49:27;;;;;;;15.15;10.25;;;;;;;-1.32;52.40;94921.72;5008699;28;20036;-76
2021/01/18 12:51:52;;;;;;;13.60;10.95;;;;;;;-1.33;52.65;94909.13;5006325;28;20399;-76
2021/01/18 12:54:18;;;;;;;11.60;9.65;;;;;;;-1.54;53.41;94915.59;5008437;28;20083;-76
2021/01/18 12:56:44;;;;;;;13.63;10.05;;;;;;;-1.63;53.24;94914.47;4991237;28;20034;-76
2021/01/18 12:59:09;;;;;;;14.35;10.20;;;;;;;-2.01;53.97;94820.53;5020690;28;20093;-77
2021/01/18 13:01:35;;;;;;;15.27;11.50;;;;;;;-1.78;54.35;94898.50;4995894;28;20022;-77
2021/01/18 13:04:00;;;;;;;15.20;9.23;;;;;;;-1.55;53.59;94934.28;5024841;28;20734;-75
2021/01/18 13:06:42;;;;;;;12.23;10.32;;;;;;;-1.47;54.25;94934.59;5023895;28;20025;-73
2021/01/18 13:09:09;;;;;;;12.93;10.32;;;;;;;-1.53;53.79;94934.97;5024983;28;20380;-77
2021/01/18 13:11:34;;;;;;;12.10;10.50;;;;;;;-1.52;53.30;94923.94;5023212;28;20151;-76
2021/01/18 13:14:00;;;;;;;13.77;10.82;;;;;;;-1.85;53.09;94920.09;5014730;28;20108;-76
2021/01/18 13:16:26;;;;;;;10.50;9.43;;;;;;;-2.03;54.80;94918.72;5025326;28;20021;-76
2021/01/18 13:18:52;;;;;;;14.23;10.55;;;;;;;-1.99;54.48;94944.72;5009506;28;20025;-76
2021/01/18 13:21:17;;;;;;;13.38;10.43;;;;;;;-1.91;54.09;94942.50;5010589;28;20410;-76
2021/01/18 13:23:47;;;;;;;13.00;9.50;;;;;;;-1.81;54.83;94944.38;5007416;28;20029;-76
2021/01/18 13:26:13;;;;;;;12.27;9.80;;;;;;;-1.91;54.44;94952.66;4990107;28;20036;-75
2021/01/18 13:28:43;;;;;;;14.35;11.02;;;;;;;-1.77;54.84;94942.47;5015235;28;20036;-74
2021/01/18 13:31:09;;;;;;;14.98;9.98;;;;;;;-1.88;54.26;94944.84;5026686;28;20136;-74
2021/01/18 13:33:34;;;;;;;14.70;10.27;;;;;;;-1.58;54.09;94950.53;5008011;28;20026;-74
2021/01/18 13:36:00;;;;;;;12.73;10.15;;;;;;;-1.83;53.71;94950.47;5018668;28;20107;-76
2021/01/18 13:38:25;;;;;;;11.07;9.23;;;;;;;-2.10;54.09;94927.63;5027365;28;20475;-74
2021/01/18 13:40:51;;;;;;;13.75;10.85;;;;;;;-2.00;54.36;94959.13;5000893;28;20034;-74
2021/01/18 13:43:16;;;;;;;12.88;10.80;;;;;;;-2.06;54.39;94958.69;5025866;28;20017;-74
2021/01/18 13:45:42;;;;;;;11.98;9.77;;;;;;;-2.29;54.01;94943.16;5027922;28;20026;-74
2021/01/18 13:48:07;;;;;;;11.10;9.82;;;;;;;-2.37;54.74;94940.28;5019942;28;20041;-77
2021/01/18 13:50:33;;;;;;;12.68;9.82;;;;;;;-2.26;54.73;94927.78;5007214;28;20145;-74
2021/01/18 13:52:58;;;;;;;12.48;9.85;;;;;;;-2.21;54.74;94957.91;5019842;28;20032;-75
2021/01/18 13:55:24;;;;;;;12.25;10.07;;;;;;;-2.29;54.67;94963.44;5001023;28;20028;-75
2021/01/18 13:57:50;;;;;;;14.63;10.43;;;;;;;-2.25;55.47;94967.41;5036701;28;20494;-75
2021/01/18 14:00:16;;;;;;;14.88;10.15;;;;;;;-2.44;55.00;94966.09;5021341;28;20030;-75
2021/01/18 14:02:41;;;;;;;11.98;9.63;;;;;;;-2.48;55.32;94982.41;5027559;28;20033;-75
2021/01/18 14:05:07;;;;;;;11.02;9.23;;;;;;;-2.43;55.76;94975.31;5027691;28;20026;-75
2021/01/18 14:07:32;;;;;;;11.35;9.13;;;;;;;-2.44;55.74;94978.78;5028802;28;20050;-75
2021/01/18 14:09:58;;;;;;;13.85;9.65;;;;;;;-2.55;55.96;94988.72;5027391;28;20042;-75
2021/01/18 14:12:23;;;;;;;12.25;10.57;;;;;;;-2.62;55.83;94988.28;5026975;28;20091;-75
2021/01/18 14:14:49;;;;;;;14.18;11.10;;;;;;;-2.65;56.14;94985.94;5026623;28;20542;-75
2021/01/18 14:17:14;;;;;;;12.52;9.50;;;;;;;-2.78;56.63;95006.09;4990486;28;20022;-75
2021/01/18 14:19:40;;;;;;;14.10;10.32;;;;;;;-2.88;56.60;94999.94;5008869;28;20045;-75
2021/01/18 14:22:05;;;;;;;15.80;10.30;;;;;;;-2.92;56.93;95007.84;5005167;28;20030;-75
2021/01/18 14:24:31;;;;;;;18.40;13.07;;;;;;;-3.06;57.18;94995.13;4993936;28;20049;-75
2021/01/18 14:26:56;;;;;;;25.30;14.70;;;;;;;-3.20;57.37;94983.25;5025021;28;20041;-75
2021/01/18 14:29:22;;;;;;;22.92;13.88;;;;;;;-3.16;57.98;95002.44;5010426;28;20042;-75
2021/01/18 14:31:47;;;;;;;19.08;11.63;;;;;;;-3.40;58.10;94970.91;5041991;28;20030;-75
2021/01/18 14:34:13;;;;;;;15.30;10.73;;;;;;;-3.19;58.47;95007.69;5043235;28;20567;-75
2021/01/18 14:36:39;;;;;;;19.10;13.18;;;;;;;-3.17;58.95;94990.69;5026311;28;20049;-75
2021/01/18 14:39:05;;;;;;;14.93;11.20;;;;;;;-3.23;59.27;94993.56;5009490;28;20021;-75
2021/01/18 14:41:31;;;;;;;11.80;9.10;;;;;;;-3.37;58.63;94965.72;5010629;28;20032;-75
2021/01/18 14:43:57;;;;;;;12.40;8.85;;;;;;;-3.30;58.05;95002.41;5024548;28;20438;-74
2021/01/18 14:46:26;;;;;;;10.55;8.45;;;;;;;-3.23;58.17;95018.88;5010694;28;20033;-74
2021/01/18 14:48:51;;;;;;;11.90;8.93;;;;;;;-3.33;58.30;94995.81;5025076;28;20037;-74
2021/01/18 14:51:24;;;;;;;14.52;8.75;;;;;;;-3.45;58.73;94998.22;5007491;28;20590;-74
2021/01/18 14:53:49;;;;;;;14.80;8.57;;;;;;;-3.43;58.84;95012.41;5009579;28;20422;-74
2021/01/18 14:56:16;;;;;;;9.50;8.50;;;;;;;-3.41;58.47;95020.75;5019336;28;20022;-74
2021/01/18 14:58:41;;;;;;;14.93;9.40;;;;;;;-3.50;59.35;95012.84;5026091;28;20043;-75
2021/01/18 15:01:07;;;;;;;12.25;8.70;;;;;;;-3.52;59.20;95027.28;5008471;28;20022;-74
2021/01/18 15:03:32;;;;;;;9.18;7.90;;;;;;;-3.64;59.14;95025.44;5009973;28;20099;-74
2021/01/18 15:05:58;;;;;;;12.02;8.10;;;;;;;-3.70;59.19;95024.06;5024575;28;20657;-74
2021/01/18 15:08:23;;;;;;;34.17;20.00;;;;;;;-3.72;59.56;95020.00;5005612;28;20423;-74
2021/01/18 15:10:48;;;;;;;10.80;8.00;;;;;;;-3.87;60.11;95002.22;5008651;28;20021;-74
2021/01/18 15:13:14;;;;;;;9.18;7.90;;;;;;;-3.88;60.52;95030.94;5000365;28;20030;-75
2021/01/18 15:15:40;;;;;;;12.43;9.23;;;;;;;-3.86;61.28;95034.19;5006444;28;20480;-76
2021/01/18 15:18:05;;;;;;;10.32;8.73;;;;;;;-3.93;60.99;95034.59;5004838;28;20060;-76
2021/01/18 15:20:31;;;;;;;11.38;9.80;;;;;;;-4.16;60.94;95017.31;5001806;28;20063;-77
2021/01/18 15:22:56;;;;;;;12.80;10.32;;;;;;;-4.15;61.35;95021.47;5008023;28;20037;-76
2021/01/18 15:25:22;;;;;;;12.57;9.93;;;;;;;-4.30;61.50;95010.44;5025846;28;20030;-76
2021/01/18 15:27:48;;;;;;;11.85;10.27;;;;;;;-4.28;62.13;95026.38;5007717;28;20029;-77
2021/01/18 15:30:16;;;;;;;11.48;9.40;;;;;;;-4.39;62.18;95019.34;5025122;28;20602;-76
2021/01/18 15:32:41;;;;;;;12.13;9.38;;;;;;;-4.40;62.33;95021.97;5026944;28;20041;-76
2021/01/18 15:35:07;;;;;;;11.27;9.60;;;;;;;-4.45;62.60;95028.94;5007688;28;20033;-76
2021/01/18 15:37:33;;;;;;;14.93;9.88;;;;;;;-4.57;62.70;95030.41;5025889;28;20117;-76
2021/01/18 15:39:58;;;;;;;14.88;10.23;;;;;;;-4.62;62.73;95031.53;5007000;28;20450;-76
2021/01/18 15:42:24;;;;;;;11.40;9.20;;;;;;;-4.79;62.75;95017.25;5025352;28;20037;-76
2021/01/18 15:44:49;;;;;;;15.60;10.52;;;;;;;-4.66;63.18;95030.88;5006100;28;20040;-76
2021/01/18 15:47:15;;;;;;;14.98;10.52;;;;;;;-4.82;63.52;95017.41;5025597;28;20033;-77
2021/01/18 15:49:41;;;;;;;14.73;11.02;;;;;;;-4.82;63.43;95020.72;5024099;28;20033;-77
2021/01/18 15:52:07;;;;;;;16.08;10.48;;;;;;;-4.84;64.11;95039.38;5019467;28;20100;-77
2021/01/18 15:54:33;;;;;;;14.23;10.10;;;;;;;-4.96;64.64;95038.28;5018736;28;20112;-76
2021/01/18 15:56:59;;;;;;;17.65;10.93;;;;;;;-4.92;64.59;95038.94;5004153;28;20407;-75
2021/01/18 15:59:24;;;;;;;15.57;11.63;;;;;;;-5.00;64.82;95031.75;5012004;28;20033;-76
2021/01/18 16:01:50;;;;;;;17.88;11.38;;;;;;;-5.14;65.52;95020.72;5006372;28;20045;-75
2021/01/18 16:04:15;;;;;;;15.32;10.73;;;;;;;-5.08;65.53;95031.31;4987545;28;20026;-75
2021/01/18 16:06:44;;;;;;;20.20;12.15;;;;;;;-5.34;65.74;95019.16;4982547;28;20133;-75
2021/01/18 16:09:10;;;;;;;17.90;12.27;;;;;;;-5.19;66.08;95041.13;5017702;28;20025;-75
2021/01/18 16:11:38;;;;;;;19.52;13.60;;;;;;;-5.12;66.12;95044.16;5007862;28;20029;-75
2021/01/18 16:14:07;;;;;;;19.88;13.38;;;;;;;-5.25;66.24;95043.94;5023900;28;20030;-75
2021/01/18 16:16:33;;;;;;;18.92;13.15;;;;;;;-5.35;67.11;95042.75;5006808;28;20042;-75
2021/01/18 16:18:58;;;;;;;23.25;13.90;;;;;;;-5.31;66.90;95044.25;4987418;28;20132;-75
2021/01/18 16:21:33;;;;;;;21.63;13.45;;;;;;;-5.29;66.69;95050.03;4993811;28;20489;-75
2021/01/18 16:23:58;;;;;;;24.13;14.02;;;;;;;-5.30;66.84;95057.69;5025468;28;20059;-75
2021/01/18 16:26:24;;;;;;;21.13;14.02;;;;;;;-5.29;67.07;95052.53;4996816;28;20490;-74
2021/01/18 16:28:50;;;;;;;21.33;14.43;;;;;;;-5.39;67.30;95048.81;4988098;28;20495;-74
2021/01/18 16:31:16;;;;;;;20.10;13.32;;;;;;;-5.47;67.49;95051.72;4988420;28;20041;-75
2021/01/18 16:33:41;;;;;;;21.40;15.05;;;;;;;-5.40;67.11;95050.56;4988408;28;20132;-75
2021/01/18 16:36:07;;;;;;;22.35;15.15;;;;;;;-5.52;67.30;95052.84;4996251;28;20033;-74
2021/01/18 16:38:35;;;;;;;26.42;16.17;;;;;;;-5.45;67.93;95066.78;5008944;28;20460;-74
2021/01/18 16:41:03;;;;;;;31.80;17.80;;;;;;;-5.43;67.61;95075.94;4993459;28;20033;-75
2021/01/18 16:43:28;;;;;;;25.40;15.02;;;;;;;-5.48;67.60;95057.66;5005273;28;20038;-74
2021/01/18 16:45:54;;;;;;;24.08;15.27;;;;;;;-5.47;67.94;95076.13;5015729;28;20026;-74
2021/01/18 16:48:19;;;;;;;25.33;18.17;;;;;;;-5.51;67.77;95065.38;5004647;28;20492;-74
2021/01/18 16:50:45;;;;;;;28.25;17.70;;;;;;;-5.72;69.14;95043.69;4989467;28;20490;-75
2021/01/18 16:53:10;;;;;;;26.35;16.63;;;;;;;-5.66;69.40;95071.13;4990532;28;20054;-75
2021/01/18 16:55:35;;;;;;;28.55;18.15;;;;;;;-5.69;68.49;95048.59;5016228;28;20404;-75
2021/01/18 16:58:01;;;;;;;27.75;16.90;;;;;;;-5.69;68.33;95061.19;4992203;28;20034;-75
2021/01/18 17:00:26;;;;;;;29.90;17.00;;;;;;;-5.63;69.17;95078.56;4992846;28;20029;-75
2021/01/18 17:02:52;;;;;;;26.85;16.88;;;;;;;-5.66;69.26;95075.34;4998661;28;20081;-75
2021/01/18 17:05:17;;;;;;;28.05;17.70;;;;;;;-5.72;69.78;95085.72;5007704;28;20025;-75
2021/01/18 17:07:43;;;;;;;24.77;16.20;;;;;;;-5.78;69.95;95081.78;4991237;28;20036;-75
2021/01/18 17:10:09;;;;;;;27.67;15.70;;;;;;;-5.87;69.66;95062.88;5010022;28;20103;-75
2021/01/18 17:12:35;;;;;;;33.13;18.77;;;;;;;-5.82;69.98;95079.47;5021818;28;20574;-74
2021/01/18 17:15:01;;;;;;;33.47;17.60;;;;;;;-5.95;70.65;95074.22;4952808;28;20026;-75
2021/01/18 17:17:26;;;;;;;38.72;21.83;;;;;;;-5.84;70.37;95069.44;5014005;28;20496;-75
2021/01/18 17:19:52;;;;;;;34.88;19.83;;;;;;;-5.90;70.42;95073.09;4996035;28;20022;-75
2021/01/18 17:22:17;;;;;;;34.92;19.42;;;;;;;-5.94;70.83;95086.72;5018491;28;20116;-75
2021/01/18 17:24:42;;;;;;;34.00;21.27;;;;;;;-6.08;70.55;95048.75;5032325;28;20038;-77
2021/01/18 17:27:08;;;;;;;34.13;19.70;;;;;;;-5.84;70.78;95082.03;4999854;28;20029;-75
2021/01/18 17:29:34;;;;;;;40.95;21.90;;;;;;;-5.99;71.50;95090.34;5020621;28;20049;-75
2021/01/18 17:32:09;;;;;;;39.58;21.13;;;;;;;-5.80;70.95;95100.38;5009926;28;20030;-74
2021/01/18 17:34:34;;;;;;;28.90;17.23;;;;;;;-5.98;71.32;95100.38;5003080;28;20040;-75
2021/01/18 17:37:04;;;;;;;29.83;16.13;;;;;;;-6.07;71.83;95099.97;5013354;28;20403;-74
2021/01/18 17:39:29;;;;;;;30.55;19.13;;;;;;;-6.03;71.70;95093.88;4997801;28;20056;-75
2021/01/18 17:41:55;;;;;;;27.77;18.17;;;;;;;-6.19;72.25;95081.16;4980578;28;20467;-74
2021/01/18 17:44:21;;;;;;;32.72;19.15;;;;;;;-6.11;71.89;95093.41;5013022;28;20030;-74
2021/01/18 17:46:46;;;;;;;31.77;19.85;;;;;;;-6.10;71.37;95070.66;4998945;28;20424;-74
2021/01/18 17:49:12;;;;;;;26.80;18.45;;;;;;;-6.09;71.46;95097.50;5007363;28;20034;-75
2021/01/18 17:51:37;;;;;;;29.48;18.55;;;;;;;-6.18;71.77;95077.75;5027995;28;20038;-74
2021/01/18 17:54:03;;;;;;;29.00;17.92;;;;;;;-6.13;72.03;95101.03;4993652;28;20029;-74
2021/01/18 17:56:32;;;;;;;33.55;17.45;;;;;;;-6.44;72.19;95052.91;5011912;28;20033;-74
2021/01/18 17:59:01;;;;;;;29.27;17.75;;;;;;;-6.21;72.34;95098.03;5008855;28;20040;-74
2021/01/18 18:01:27;;;;;;;24.30;15.50;;;;;;;-6.23;72.54;95109.91;5025290;28;20116;-74
2021/01/18 18:03:53;;;;;;;27.70;17.38;;;;;;;-6.34;72.54;95076.81;5025821;28;20506;-74
2021/01/18 18:06:28;;;;;;;35.42;20.60;;;;;;;-6.22;72.92;95093.06;5021371;28;20021;-74
2021/01/18 18:08:54;;;;;;;28.80;18.42;;;;;;;-6.39;72.93;95096.34;5012681;28;20022;-74
2021/01/18 18:11:19;;;;;;;26.88;16.45;;;;;;;-6.27;72.48;95085.72;4998062;28;20454;-74
2021/01/18 18:13:46;;;;;;;30.15;18.80;;;;;;;-6.24;72.67;95100.69;5027888;28;20030;-75
2021/01/18 18:16:16;;;;;;;28.75;15.90;;;;;;;-6.35;73.13;95099.50;5011110;28;20295;-74
2021/01/18 18:18:44;;;;;;;24.95;16.27;;;;;;;-6.31;72.55;95091.78;5017613;28;20060;-74
2021/01/18 18:21:20;;;;;;;24.90;15.82;;;;;;;-6.44;72.28;95083.13;5018186;28;20112;-74
2021/01/18 18:23:46;;;;;;;27.63;16.08;;;;;;;-6.41;72.23;95083.81;5034404;28;20169;-74
2021/01/18 18:26:12;;;;;;;27.30;17.13;;;;;;;-6.28;72.49;95105.94;5020635;28;20031;-75
2021/01/18 18:28:37;;;;;;;28.15;16.05;;;;;;;-6.30;72.46;95107.72;5010346;28;20026;-74
2021/01/18 18:31:03;;;;;;;25.73;16.67;;;;;;;-6.30;72.50;95107.72;4974382;28;20054;-74
2021/01/18 18:33:28;;;;;;;30.33;17.58;;;;;;;-6.37;72.63;95106.34;4993348;28;20046;-74
2021/01/18 18:35:54;;;;;;;26.63;14.57;;;;;;;-6.38;72.43;95120.63;5015558;28;20040;-74
2021/01/18 18:38:19;;;;;;;27.77;17.00;;;;;;;-6.28;72.12;95123.56;5009000;28;20487;-74
2021/01/18 18:40:45;;;;;;;25.63;17.10;;;;;;;-6.55;71.74;95078.53;5006199;28;20050;-74
2021/01/18 18:43:10;;;;;;;29.27;18.27;;;;;;;-6.36;71.73;95125.59;4990231;28;20034;-74
2021/01/18 18:45:36;;;;;;;30.33;16.73;;;;;;;-6.53;71.47;95086.03;5008552;28;20029;-74
2021/01/18 18:48:01;;;;;;;24.60;14.95;;;;;;;-6.32;71.65;95124.59;5009560;28;20099;-75
2021/01/18 18:50:26;;;;;;;22.65;14.65;;;;;;;-6.49;71.97;95103.47;5018801;28;20025;-74
2021/01/18 18:52:52;;;;;;;21.15;13.65;;;;;;;-6.51;72.03;95106.91;4991449;28;20034;-74
2021/01/18 18:55:18;;;;;;;24.20;14.88;;;;;;;-6.36;72.37;95126.44;4989576;28;20034;-74
2021/01/18 18:57:44;;;;;;;24.20;15.88;;;;;;;-6.36;71.92;95121.38;5022834;28;20553;-74
2021/01/18 19:00:10;;;;;;;27.13;16.95;;;;;;;-6.51;72.50;95110.25;5006248;28;20040;-74
2021/01/18 19:02:36;;;;;;;23.60;15.18;;;;;;;-6.32;71.99;95132.94;5024697;28;20503;-74
2021/01/18 19:05:02;;;;;;;23.75;16.30;;;;;;;-6.46;72.13;95128.53;5025777;28;20025;-74
2021/01/18 19:07:28;;;;;;;28.55;15.90;;;;;;;-6.48;72.42;95130.25;5006653;28;20115;-74
2021/01/18 19:09:53;;;;;;;28.15;17.85;;;;;;;-6.48;72.42;95129.44;5025353;28;20434;-74
2021/01/18 19:12:19;;;;;;;29.17;17.80;;;;;;;-6.54;72.15;95122.97;5012965;28;20038;-74
2021/01/18 19:14:44;;;;;;;38.10;19.88;;;;;;;-6.63;72.84;95115.81;5022798;28;20032;-74
2021/01/18 19:17:10;;;;;;;29.85;17.73;;;;;;;-6.45;71.68;95144.41;5004072;28;20034;-74
2021/01/18 19:19:35;;;;;;;25.98;16.20;;;;;;;-6.38;71.46;95145.81;5009183;28;20511;-74
2021/01/18 19:22:02;;;;;;;23.65;15.60;;;;;;;-6.45;71.67;95139.38;5016789;28;20516;-75
2021/01/18 19:24:28;;;;;;;25.23;17.05;;;;;;;-6.42;70.79;95129.19;5005770;28;20434;-75
2021/01/18 19:26:54;;;;;;;22.05;14.52;;;;;;;-6.56;70.74;95123.94;4996056;28;20094;-75
2021/01/18 19:29:20;;;;;;;21.63;14.15;;;;;;;-6.50;71.41;95152.19;5005650;28;20053;-74
2021/01/18 19:31:46;;;;;;;26.20;16.20;;;;;;;-6.38;70.90;95150.00;5015529;28;20435;-75
2021/01/18 19:34:11;;;;;;;20.83;13.77;;;;;;;-6.46;71.04;95143.63;5006959;28;20044;-75
2021/01/18 19:36:38;;;;;;;23.27;14.32;;;;;;;-6.60;71.07;95142.56;4982826;28;20025;-75
2021/01/18 19:39:09;;;;;;;21.63;13.95;;;;;;;-6.57;71.36;95133.19;5008952;28;20392;-75
2021/01/18 19:41:34;;;;;;;17.75;12.43;;;;;;;-6.77;71.60;95107.19;4997903;28;20029;-74
2021/01/18 19:44:03;;;;;;;23.42;13.38;;;;;;;-6.52;71.04;95143.84;5005458;28;20033;-75
2021/01/18 19:46:30;;;;;;;19.23;13.23;;;;;;;-6.51;70.96;95142.16;4998999;28;20091;-75
2021/01/18 19:48:55;;;;;;;23.00;13.35;;;;;;;-6.60;71.21;95128.28;5017291;28;20133;-74